sensor_id;sensor_type;location;lat;lon;timestamp;temperature;humidity
72114;SHT31;59989;46.220;19.888;2022-10-15T00:00:32;8.16;95.16
72114;SHT31;59989;46.220;19.888;2022-10-15T00:03:36;8.05;95.21
72114;SHT31;59989;46.220;19.888;2022-10-15T00:06:39;8.02;95.11
72114;SHT31;59989;46.220;19.888;2022-10-15T00:09:41;7.99;95.28
72114;SHT31;59989;46.220;19.888;2022-10-15T00:12:44;7.95;95.30
72114;SHT31;59989;46.220;19.888;2022-10-15T00:15:46;7.88;95.23
72114;SHT31;59989;46.220;19.888;2022-10-15T00:18:49;7.83;95.26
72114;SHT31;59989;46.220;19.888;2022-10-15T00:21:53;7.85;95.36
72114;SHT31;59989;46.220;19.888;2022-10-15T00:24:55;7.85;95.61
72114;SHT31;59989;46.220;19.888;2022-10-15T00:27:58;7.78;95.63
72114;SHT31;59989;46.220;19.888;2022-10-15T00:31:03;7.77;95.67
72114;SHT31;59989;46.220;19.888;2022-10-15T00:34:06;7.74;95.70
72114;SHT31;59989;46.220;19.888;2022-10-15T00:37:08;7.71;95.64
72114;SHT31;59989;46.220;19.888;2022-10-15T00:40:15;7.69;95.77
72114;SHT31;59989;46.220;19.888;2022-10-15T00:46:42;7.81;95.92
72114;SHT31;59989;46.220;19.888;2022-10-15T00:49:56;7.85;95.94
72114;SHT31;59989;46.220;19.888;2022-10-15T00:53:04;7.95;95.93
72114;SHT31;59989;46.220;19.888;2022-10-15T00:56:07;7.82;95.73
72114;SHT31;59989;46.220;19.888;2022-10-15T00:59:11;7.83;95.82
72114;SHT31;59989;46.220;19.888;2022-10-15T01:02:16;7.78;95.83
72114;SHT31;59989;46.220;19.888;2022-10-15T01:05:21;7.72;95.76
72114;SHT31;59989;46.220;19.888;2022-10-15T01:08:24;7.71;95.64
72114;SHT31;59989;46.220;19.888;2022-10-15T01:11:49;7.61;95.59
72114;SHT31;59989;46.220;19.888;2022-10-15T01:15:22;7.48;95.66
72114;SHT31;59989;46.220;19.888;2022-10-15T01:19:03;7.40;95.76
72114;SHT31;59989;46.220;19.888;2022-10-15T01:22:21;7.44;95.83
72114;SHT31;59989;46.220;19.888;2022-10-15T01:28:47;7.28;95.81
72114;SHT31;59989;46.220;19.888;2022-10-15T01:38:53;7.14;95.87
72114;SHT31;59989;46.220;19.888;2022-10-15T01:42:16;7.10;95.78
72114;SHT31;59989;46.220;19.888;2022-10-15T01:45:23;7.06;95.82
72114;SHT31;59989;46.220;19.888;2022-10-15T01:48:40;7.01;95.88
72114;SHT31;59989;46.220;19.888;2022-10-15T01:51:43;7.00;95.92
72114;SHT31;59989;46.220;19.888;2022-10-15T01:54:48;6.96;95.90
72114;SHT31;59989;46.220;19.888;2022-10-15T01:57:54;6.96;95.88
72114;SHT31;59989;46.220;19.888;2022-10-15T02:00:59;6.97;95.83
72114;SHT31;59989;46.220;19.888;2022-10-15T02:04:01;6.96;95.95
72114;SHT31;59989;46.220;19.888;2022-10-15T02:07:34;6.88;95.99
72114;SHT31;59989;46.220;19.888;2022-10-15T02:10:47;6.88;95.98
72114;SHT31;59989;46.220;19.888;2022-10-15T02:14:02;6.86;96.03
72114;SHT31;59989;46.220;19.888;2022-10-15T02:17:08;6.88;96.01
72114;SHT31;59989;46.220;19.888;2022-10-15T02:20:15;6.86;95.98
72114;SHT31;59989;46.220;19.888;2022-10-15T02:26:46;6.82;95.98
72114;SHT31;59989;46.220;19.888;2022-10-15T02:29:52;6.72;95.97
72114;SHT31;59989;46.220;19.888;2022-10-15T02:32:57;6.69;95.99
72114;SHT31;59989;46.220;19.888;2022-10-15T02:36:01;6.68;96.02
72114;SHT31;59989;46.220;19.888;2022-10-15T02:39:09;6.64;95.90
72114;SHT31;59989;46.220;19.888;2022-10-15T02:42:15;6.61;95.86
72114;SHT31;59989;46.220;19.888;2022-10-15T02:45:19;6.55;95.86
72114;SHT31;59989;46.220;19.888;2022-10-15T02:48:22;6.49;95.80
72114;SHT31;59989;46.220;19.888;2022-10-15T02:51:25;6.45;95.74
72114;SHT31;59989;46.220;19.888;2022-10-15T02:54:27;6.40;95.66
72114;SHT31;59989;46.220;19.888;2022-10-15T02:57:30;6.35;95.63
72114;SHT31;59989;46.220;19.888;2022-10-15T03:00:34;6.35;95.74
72114;SHT31;59989;46.220;19.888;2022-10-15T03:03:36;6.37;95.98
72114;SHT31;59989;46.220;19.888;2022-10-15T03:06:39;6.38;96.02
72114;SHT31;59989;46.220;19.888;2022-10-15T03:09:41;6.34;96.01
72114;SHT31;59989;46.220;19.888;2022-10-15T03:12:44;6.31;96.06
72114;SHT31;59989;46.220;19.888;2022-10-15T03:15:47;6.28;96.16
72114;SHT31;59989;46.220;19.888;2022-10-15T03:18:50;6.27;96.19
72114;SHT31;59989;46.220;19.888;2022-10-15T03:21:53;6.31;96.30
72114;SHT31;59989;46.220;19.888;2022-10-15T03:24:55;6.28;96.37
72114;SHT31;59989;46.220;19.888;2022-10-15T03:28:00;6.24;96.32
72114;SHT31;59989;46.220;19.888;2022-10-15T03:31:13;6.20;96.33
72114;SHT31;59989;46.220;19.888;2022-10-15T03:34:19;6.17;96.28
72114;SHT31;59989;46.220;19.888;2022-10-15T03:37:22;6.11;96.26
72114;SHT31;59989;46.220;19.888;2022-10-15T03:40:26;6.13;96.23
72114;SHT31;59989;46.220;19.888;2022-10-15T03:43:33;6.09;96.26
72114;SHT31;59989;46.220;19.888;2022-10-15T03:46:42;6.06;96.28
72114;SHT31;59989;46.220;19.888;2022-10-15T03:49:45;6.04;96.26
72114;SHT31;59989;46.220;19.888;2022-10-15T03:52:47;5.97;96.27
72114;SHT31;59989;46.220;19.888;2022-10-15T03:55:51;5.96;96.28
72114;SHT31;59989;46.220;19.888;2022-10-15T03:58:54;5.93;96.27
72114;SHT31;59989;46.220;19.888;2022-10-15T04:01:56;5.89;96.31
72114;SHT31;59989;46.220;19.888;2022-10-15T04:04:59;5.85;96.33
72114;SHT31;59989;46.220;19.888;2022-10-15T04:08:02;5.82;96.34
72114;SHT31;59989;46.220;19.888;2022-10-15T04:11:08;5.85;96.44
72114;SHT31;59989;46.220;19.888;2022-10-15T04:14:11;5.85;96.48
72114;SHT31;59989;46.220;19.888;2022-10-15T04:17:14;5.80;96.56
72114;SHT31;59989;46.220;19.888;2022-10-15T04:20:19;5.80;96.57
72114;SHT31;59989;46.220;19.888;2022-10-15T04:23:22;5.79;96.56
72114;SHT31;59989;46.220;19.888;2022-10-15T04:26:53;5.73;96.38
72114;SHT31;59989;46.220;19.888;2022-10-15T04:29:55;5.73;96.34
72114;SHT31;59989;46.220;19.888;2022-10-15T04:32:58;5.67;96.38
72114;SHT31;59989;46.220;19.888;2022-10-15T04:36:02;5.69;96.37
72114;SHT31;59989;46.220;19.888;2022-10-15T04:39:24;5.65;96.30
72114;SHT31;59989;46.220;19.888;2022-10-15T04:42:28;5.60;96.19
72114;SHT31;59989;46.220;19.888;2022-10-15T04:45:30;5.66;96.44
72114;SHT31;59989;46.220;19.888;2022-10-15T04:48:35;5.63;96.40
72114;SHT31;59989;46.220;19.888;2022-10-15T04:51:45;5.70;96.46
72114;SHT31;59989;46.220;19.888;2022-10-15T04:54:52;5.82;96.66
72114;SHT31;59989;46.220;19.888;2022-10-15T04:57:54;5.85;96.60
72114;SHT31;59989;46.220;19.888;2022-10-15T05:01:05;6.01;97.01
72114;SHT31;59989;46.220;19.888;2022-10-15T05:04:20;6.07;96.91
72114;SHT31;59989;46.220;19.888;2022-10-15T05:07:23;6.13;96.82
72114;SHT31;59989;46.220;19.888;2022-10-15T05:10:28;6.28;96.99
72114;SHT31;59989;46.220;19.888;2022-10-15T05:13:33;6.28;96.97
72114;SHT31;59989;46.220;19.888;2022-10-15T05:16:37;6.40;97.00
72114;SHT31;59989;46.220;19.888;2022-10-15T05:19:40;6.58;97.21
72114;SHT31;59989;46.220;19.888;2022-10-15T05:22:50;6.75;97.25
72114;SHT31;59989;46.220;19.888;2022-10-15T05:25:52;6.96;97.36
72114;SHT31;59989;46.220;19.888;2022-10-15T05:28:59;7.07;97.19
72114;SHT31;59989;46.220;19.888;2022-10-15T05:32:04;7.11;96.93
72114;SHT31;59989;46.220;19.888;2022-10-15T05:35:08;7.17;96.73
72114;SHT31;59989;46.220;19.888;2022-10-15T05:38:51;7.35;96.79
72114;SHT31;59989;46.220;19.888;2022-10-15T05:41:54;7.41;96.57
72114;SHT31;59989;46.220;19.888;2022-10-15T05:45:35;7.46;96.44
72114;SHT31;59989;46.220;19.888;2022-10-15T05:48:39;7.48;96.15
72114;SHT31;59989;46.220;19.888;2022-10-15T05:51:42;7.55;96.28
72114;SHT31;59989;46.220;19.888;2022-10-15T05:54:52;7.57;95.82
72114;SHT31;59989;46.220;19.888;2022-10-15T05:57:54;7.68;96.00
72114;SHT31;59989;46.220;19.888;2022-10-15T06:00:58;7.75;95.86
72114;SHT31;59989;46.220;19.888;2022-10-15T06:04:01;7.83;95.70
72114;SHT31;59989;46.220;19.888;2022-10-15T06:07:04;7.95;95.48
72114;SHT31;59989;46.220;19.888;2022-10-15T06:10:07;8.07;95.38
72114;SHT31;59989;46.220;19.888;2022-10-15T06:13:11;8.23;94.90
72114;SHT31;59989;46.220;19.888;2022-10-15T06:16:15;8.40;94.74
72114;SHT31;59989;46.220;19.888;2022-10-15T06:19:24;8.63;94.77
72114;SHT31;59989;46.220;19.888;2022-10-15T06:22:29;8.93;94.72
72114;SHT31;59989;46.220;19.888;2022-10-15T06:25:32;9.20;93.81
72114;SHT31;59989;46.220;19.888;2022-10-15T06:28:36;9.44;94.16
72114;SHT31;59989;46.220;19.888;2022-10-15T06:31:38;9.85;94.34
72114;SHT31;59989;46.220;19.888;2022-10-15T06:34:41;9.95;93.31
72114;SHT31;59989;46.220;19.888;2022-10-15T06:37:43;10.25;93.77
72114;SHT31;59989;46.220;19.888;2022-10-15T06:40:46;10.43;92.32
72114;SHT31;59989;46.220;19.888;2022-10-15T06:43:49;10.49;91.56
72114;SHT31;59989;46.220;19.888;2022-10-15T06:46:51;10.71;91.83
72114;SHT31;59989;46.220;19.888;2022-10-15T06:49:54;10.98;91.09
72114;SHT31;59989;46.220;19.888;2022-10-15T06:52:56;11.14;90.70
72114;SHT31;59989;46.220;19.888;2022-10-15T06:56:03;11.34;90.64
72114;SHT31;59989;46.220;19.888;2022-10-15T06:59:11;11.46;89.91
72114;SHT31;59989;46.220;19.888;2022-10-15T07:02:13;11.58;88.76
72114;SHT31;59989;46.220;19.888;2022-10-15T07:05:18;11.70;88.92
72114;SHT31;59989;46.220;19.888;2022-10-15T07:08:20;11.82;88.96
72114;SHT31;59989;46.220;19.888;2022-10-15T07:11:23;12.03;87.97
72114;SHT31;59989;46.220;19.888;2022-10-15T07:14:25;12.13;87.90
72114;SHT31;59989;46.220;19.888;2022-10-15T07:17:27;12.37;87.20
72114;SHT31;59989;46.220;19.888;2022-10-15T07:20:31;12.59;85.31
72114;SHT31;59989;46.220;19.888;2022-10-15T07:23:35;12.92;85.92
72114;SHT31;59989;46.220;19.888;2022-10-15T07:26:37;13.07;85.40
72114;SHT31;59989;46.220;19.888;2022-10-15T07:29:39;13.19;84.19
72114;SHT31;59989;46.220;19.888;2022-10-15T07:32:43;13.43;82.75
72114;SHT31;59989;46.220;19.888;2022-10-15T07:35:47;13.67;83.64
72114;SHT31;59989;46.220;19.888;2022-10-15T07:38:50;13.85;83.01
72114;SHT31;59989;46.220;19.888;2022-10-15T07:41:52;14.09;82.38
72114;SHT31;59989;46.220;19.888;2022-10-15T07:44:55;14.25;80.59
72114;SHT31;59989;46.220;19.888;2022-10-15T07:47:57;14.51;79.64
72114;SHT31;59989;46.220;19.888;2022-10-15T07:51:02;14.61;78.99
72114;SHT31;59989;46.220;19.888;2022-10-15T07:54:05;14.74;78.62
72114;SHT31;59989;46.220;19.888;2022-10-15T07:57:07;14.87;77.65
72114;SHT31;59989;46.220;19.888;2022-10-15T08:00:11;15.01;77.77
72114;SHT31;59989;46.220;19.888;2022-10-15T08:03:13;15.32;77.78
72114;SHT31;59989;46.220;19.888;2022-10-15T08:06:16;15.45;75.91
72114;SHT31;59989;46.220;19.888;2022-10-15T08:09:20;15.60;75.30
72114;SHT31;59989;46.220;19.888;2022-10-15T08:12:22;15.59;75.08
72114;SHT31;59989;46.220;19.888;2022-10-15T08:15:25;15.79;75.08
72114;SHT31;59989;46.220;19.888;2022-10-15T08:18:27;15.96;74.23
72114;SHT31;59989;46.220;19.888;2022-10-15T08:21:30;16.03;73.67
72114;SHT31;59989;46.220;19.888;2022-10-15T08:24:32;16.17;73.79
72114;SHT31;59989;46.220;19.888;2022-10-15T08:27:35;16.35;73.10
72114;SHT31;59989;46.220;19.888;2022-10-15T08:30:38;16.55;72.63
72114;SHT31;59989;46.220;19.888;2022-10-15T08:33:45;16.47;71.34
72114;SHT31;59989;46.220;19.888;2022-10-15T08:36:48;16.73;71.87
72114;SHT31;59989;46.220;19.888;2022-10-15T08:39:50;17.06;70.59
72114;SHT31;59989;46.220;19.888;2022-10-15T08:42:53;17.14;70.05
72114;SHT31;59989;46.220;19.888;2022-10-15T08:46:01;17.10;69.63
72114;SHT31;59989;46.220;19.888;2022-10-15T08:49:05;17.21;70.09
72114;SHT31;59989;46.220;19.888;2022-10-15T08:55:37;17.69;68.31
72114;SHT31;59989;46.220;19.888;2022-10-15T08:58:43;17.68;68.47
72114;SHT31;59989;46.220;19.888;2022-10-15T09:01:58;17.90;67.79
72114;SHT31;59989;46.220;19.888;2022-10-15T09:11:49;18.45;65.19
72114;SHT31;59989;46.220;19.888;2022-10-15T09:14:58;18.40;63.82
72114;SHT31;59989;46.220;19.888;2022-10-15T09:18:03;18.32;64.21
72114;SHT31;59989;46.220;19.888;2022-10-15T09:21:08;18.38;63.85
72114;SHT31;59989;46.220;19.888;2022-10-15T09:24:20;18.13;63.35
72114;SHT31;59989;46.220;19.888;2022-10-15T09:27:33;18.36;62.38
72114;SHT31;59989;46.220;19.888;2022-10-15T09:30:50;18.58;62.50
72114;SHT31;59989;46.220;19.888;2022-10-15T09:34:01;18.33;62.61
72114;SHT31;59989;46.220;19.888;2022-10-15T09:37:10;18.34;62.65
72114;SHT31;59989;46.220;19.888;2022-10-15T09:40:48;17.92;64.37
72114;SHT31;59989;46.220;19.888;2022-10-15T09:43:56;17.85;64.72
72114;SHT31;59989;46.220;19.888;2022-10-15T09:47:21;18.17;63.93
72114;SHT31;59989;46.220;19.888;2022-10-15T09:50:28;18.60;62.96
72114;SHT31;59989;46.220;19.888;2022-10-15T09:56:56;18.99;62.22
72114;SHT31;59989;46.220;19.888;2022-10-15T10:00:02;19.13;61.19
72114;SHT31;59989;46.220;19.888;2022-10-15T10:03:14;19.23;61.06
72114;SHT31;59989;46.220;19.888;2022-10-15T10:06:16;19.06;61.42
72114;SHT31;59989;46.220;19.888;2022-10-15T10:09:48;19.23;60.78
72114;SHT31;59989;46.220;19.888;2022-10-15T10:12:56;19.77;59.20
72114;SHT31;59989;46.220;19.888;2022-10-15T10:16:05;19.90;59.44
72114;SHT31;59989;46.220;19.888;2022-10-15T10:19:13;20.04;58.93
72114;SHT31;59989;46.220;19.888;2022-10-15T10:22:19;20.28;58.10
72114;SHT31;59989;46.220;19.888;2022-10-15T10:25:34;20.46;57.28
72114;SHT31;59989;46.220;19.888;2022-10-15T10:31:50;20.66;56.20
72114;SHT31;59989;46.220;19.888;2022-10-15T10:35:18;20.63;55.58
72114;SHT31;59989;46.220;19.888;2022-10-15T10:41:57;21.01;56.30
72114;SHT31;59989;46.220;19.888;2022-10-15T10:45:21;21.37;54.52
72114;SHT31;59989;46.220;19.888;2022-10-15T10:48:27;21.62;52.85
72114;SHT31;59989;46.220;19.888;2022-10-15T10:51:30;21.56;51.84
72114;SHT31;59989;46.220;19.888;2022-10-15T10:54:33;21.04;53.62
72114;SHT31;59989;46.220;19.888;2022-10-15T10:57:43;20.79;54.49
72114;SHT31;59989;46.220;19.888;2022-10-15T11:00:49;20.46;55.77
72114;SHT31;59989;46.220;19.888;2022-10-15T11:03:52;20.79;55.31
72114;SHT31;59989;46.220;19.888;2022-10-15T11:06:57;21.38;53.19
72114;SHT31;59989;46.220;19.888;2022-10-15T11:10:36;21.97;52.42
72114;SHT31;59989;46.220;19.888;2022-10-15T11:13:47;21.81;51.90
72114;SHT31;59989;46.220;19.888;2022-10-15T11:17:02;21.89;52.29
72114;SHT31;59989;46.220;19.888;2022-10-15T11:23:48;21.27;52.01
72114;SHT31;59989;46.220;19.888;2022-10-15T11:30:48;21.46;51.46
72114;SHT31;59989;46.220;19.888;2022-10-15T11:34:18;21.06;52.22
72114;SHT31;59989;46.220;19.888;2022-10-15T11:37:43;21.62;50.72
72114;SHT31;59989;46.220;19.888;2022-10-15T11:44:29;21.67;50.75
72114;SHT31;59989;46.220;19.888;2022-10-15T11:48:02;21.55;51.65
72114;SHT31;59989;46.220;19.888;2022-10-15T11:51:25;21.81;49.74
72114;SHT31;59989;46.220;19.888;2022-10-15T11:57:43;21.51;50.72
72114;SHT31;59989;46.220;19.888;2022-10-15T12:00:53;21.55;50.21
72114;SHT31;59989;46.220;19.888;2022-10-15T12:04:03;21.85;50.94
72114;SHT31;59989;46.220;19.888;2022-10-15T12:07:21;21.78;50.68
72114;SHT31;59989;46.220;19.888;2022-10-15T12:13:47;22.04;49.38
72114;SHT31;59989;46.220;19.888;2022-10-15T12:20:15;23.00;47.91
72114;SHT31;59989;46.220;19.888;2022-10-15T12:23:25;22.61;48.52
72114;SHT31;59989;46.220;19.888;2022-10-15T12:26:40;22.64;47.59
72114;SHT31;59989;46.220;19.888;2022-10-15T12:29:42;22.82;47.61
72114;SHT31;59989;46.220;19.888;2022-10-15T12:32:45;22.45;47.39
72114;SHT31;59989;46.220;19.888;2022-10-15T12:35:58;21.81;48.89
72114;SHT31;59989;46.220;19.888;2022-10-15T12:39:07;22.71;48.17
72114;SHT31;59989;46.220;19.888;2022-10-15T12:42:41;22.62;47.57
72114;SHT31;59989;46.220;19.888;2022-10-15T12:45:56;24.00;45.26
72114;SHT31;59989;46.220;19.888;2022-10-15T12:59:29;22.24;48.20
72114;SHT31;59989;46.220;19.888;2022-10-15T13:02:41;21.75;49.83
72114;SHT31;59989;46.220;19.888;2022-10-15T13:05:45;21.61;51.09
72114;SHT31;59989;46.220;19.888;2022-10-15T13:12:21;21.32;49.49
72114;SHT31;59989;46.220;19.888;2022-10-15T13:15:27;21.21;49.39
72114;SHT31;59989;46.220;19.888;2022-10-15T13:18:30;21.18;50.72
72114;SHT31;59989;46.220;19.888;2022-10-15T13:21:51;21.06;50.12
72114;SHT31;59989;46.220;19.888;2022-10-15T13:24:54;21.37;49.01
72114;SHT31;59989;46.220;19.888;2022-10-15T13:27:56;21.49;48.58
72114;SHT31;59989;46.220;19.888;2022-10-15T13:31:02;21.24;49.06
72114;SHT31;59989;46.220;19.888;2022-10-15T13:34:28;21.78;48.70
72114;SHT31;59989;46.220;19.888;2022-10-15T13:37:34;21.21;49.57
72114;SHT31;59989;46.220;19.888;2022-10-15T13:40:36;21.23;49.96
72114;SHT31;59989;46.220;19.888;2022-10-15T13:43:50;20.81;50.98
72114;SHT31;59989;46.220;19.888;2022-10-15T13:46:53;20.80;51.26
72114;SHT31;59989;46.220;19.888;2022-10-15T13:50:24;20.81;51.30
72114;SHT31;59989;46.220;19.888;2022-10-15T13:53:36;20.57;51.77
72114;SHT31;59989;46.220;19.888;2022-10-15T13:56:42;20.15;53.10
72114;SHT31;59989;46.220;19.888;2022-10-15T13:59:51;19.92;53.48
72114;SHT31;59989;46.220;19.888;2022-10-15T14:03:15;19.73;52.76
72114;SHT31;59989;46.220;19.888;2022-10-15T14:06:29;19.67;53.47
72114;SHT31;59989;46.220;19.888;2022-10-15T14:09:38;19.56;53.69
72114;SHT31;59989;46.220;19.888;2022-10-15T14:12:41;19.66;54.81
72114;SHT31;59989;46.220;19.888;2022-10-15T14:19:24;19.42;55.30
72114;SHT31;59989;46.220;19.888;2022-10-15T14:22:30;19.27;56.71
72114;SHT31;59989;46.220;19.888;2022-10-15T14:25:33;19.12;56.39
72114;SHT31;59989;46.220;19.888;2022-10-15T14:28:37;19.09;56.23
72114;SHT31;59989;46.220;19.888;2022-10-15T14:31:45;18.99;56.85
72114;SHT31;59989;46.220;19.888;2022-10-15T14:34:49;18.85;57.38
72114;SHT31;59989;46.220;19.888;2022-10-15T14:41:28;18.69;57.89
72114;SHT31;59989;46.220;19.888;2022-10-15T14:44:45;18.57;58.30
72114;SHT31;59989;46.220;19.888;2022-10-15T14:47:51;18.48;58.99
72114;SHT31;59989;46.220;19.888;2022-10-15T14:50:58;18.37;59.16
72114;SHT31;59989;46.220;19.888;2022-10-15T14:54:02;18.27;59.18
72114;SHT31;59989;46.220;19.888;2022-10-15T14:57:15;18.22;59.78
72114;SHT31;59989;46.220;19.888;2022-10-15T15:03:38;18.07;59.64
72114;SHT31;59989;46.220;19.888;2022-10-15T15:06:41;18.06;59.84
72114;SHT31;59989;46.220;19.888;2022-10-15T15:09:46;17.99;59.53
72114;SHT31;59989;46.220;19.888;2022-10-15T15:12:51;17.97;59.55
72114;SHT31;59989;46.220;19.888;2022-10-15T15:15:54;17.95;59.68
72114;SHT31;59989;46.220;19.888;2022-10-15T15:18:56;17.88;59.72
72114;SHT31;59989;46.220;19.888;2022-10-15T15:21:59;17.85;59.73
72114;SHT31;59989;46.220;19.888;2022-10-15T15:25:09;17.79;59.96
72114;SHT31;59989;46.220;19.888;2022-10-15T15:28:17;17.71;60.40
72114;SHT31;59989;46.220;19.888;2022-10-15T15:31:21;17.64;60.79
72114;SHT31;59989;46.220;19.888;2022-10-15T15:34:24;17.54;61.30
72114;SHT31;59989;46.220;19.888;2022-10-15T15:37:27;17.45;61.44
72114;SHT31;59989;46.220;19.888;2022-10-15T15:40:32;17.39;61.39
72114;SHT31;59989;46.220;19.888;2022-10-15T15:43:34;17.34;61.50
72114;SHT31;59989;46.220;19.888;2022-10-15T15:46:37;17.28;62.06
72114;SHT31;59989;46.220;19.888;2022-10-15T15:49:40;17.18;62.48
72114;SHT31;59989;46.220;19.888;2022-10-15T15:52:42;17.13;62.49
72114;SHT31;59989;46.220;19.888;2022-10-15T15:55:45;17.07;62.88
72114;SHT31;59989;46.220;19.888;2022-10-15T15:58:48;17.00;63.47
72114;SHT31;59989;46.220;19.888;2022-10-15T16:01:54;16.93;63.49
72114;SHT31;59989;46.220;19.888;2022-10-15T16:04:56;16.89;63.77
72114;SHT31;59989;46.220;19.888;2022-10-15T16:07:58;16.81;64.21
72114;SHT31;59989;46.220;19.888;2022-10-15T16:11:02;16.84;64.65
72114;SHT31;59989;46.220;19.888;2022-10-15T16:14:04;16.76;64.69
72114;SHT31;59989;46.220;19.888;2022-10-15T16:17:10;16.68;65.24
72114;SHT31;59989;46.220;19.888;2022-10-15T16:20:13;16.61;65.76
72114;SHT31;59989;46.220;19.888;2022-10-15T16:23:16;16.59;65.98
72114;SHT31;59989;46.220;19.888;2022-10-15T16:26:19;16.56;65.80
72114;SHT31;59989;46.220;19.888;2022-10-15T16:29:21;16.59;65.92
72114;SHT31;59989;46.220;19.888;2022-10-15T16:32:24;16.58;65.87
72114;SHT31;59989;46.220;19.888;2022-10-15T16:35:26;16.56;66.06
72114;SHT31;59989;46.220;19.888;2022-10-15T16:38:28;16.59;65.98
72114;SHT31;59989;46.220;19.888;2022-10-15T16:41:31;16.55;66.14
72114;SHT31;59989;46.220;19.888;2022-10-15T16:44:33;16.49;66.23
72114;SHT31;59989;46.220;19.888;2022-10-15T16:47:36;16.49;65.98
72114;SHT31;59989;46.220;19.888;2022-10-15T16:50:38;16.48;65.66
72114;SHT31;59989;46.220;19.888;2022-10-15T16:53:43;16.44;66.14
72114;SHT31;59989;46.220;19.888;2022-10-15T16:56:46;16.41;66.20
72114;SHT31;59989;46.220;19.888;2022-10-15T16:59:54;16.38;66.55
72114;SHT31;59989;46.220;19.888;2022-10-15T17:02:56;16.29;66.57
72114;SHT31;59989;46.220;19.888;2022-10-15T17:06:06;16.24;66.28
72114;SHT31;59989;46.220;19.888;2022-10-15T17:09:09;16.18;66.63
72114;SHT31;59989;46.220;19.888;2022-10-15T17:12:11;16.14;66.55
72114;SHT31;59989;46.220;19.888;2022-10-15T17:15:14;16.12;66.64
72114;SHT31;59989;46.220;19.888;2022-10-15T17:18:17;16.05;66.53
72114;SHT31;59989;46.220;19.888;2022-10-15T17:21:25;16.04;66.48
72114;SHT31;59989;46.220;19.888;2022-10-15T17:24:28;15.98;66.60
72114;SHT31;59989;46.220;19.888;2022-10-15T17:27:31;15.97;66.80
72114;SHT31;59989;46.220;19.888;2022-10-15T17:30:36;15.89;66.83
72114;SHT31;59989;46.220;19.888;2022-10-15T17:33:39;15.89;66.66
72114;SHT31;59989;46.220;19.888;2022-10-15T17:36:44;15.83;67.35
72114;SHT31;59989;46.220;19.888;2022-10-15T17:39:49;15.80;66.73
72114;SHT31;59989;46.220;19.888;2022-10-15T17:42:53;15.73;67.17
72114;SHT31;59989;46.220;19.888;2022-10-15T17:45:58;15.70;66.94
72114;SHT31;59989;46.220;19.888;2022-10-15T17:49:01;15.67;67.25
72114;SHT31;59989;46.220;19.888;2022-10-15T17:52:04;15.59;67.26
72114;SHT31;59989;46.220;19.888;2022-10-15T17:55:07;15.59;66.78
72114;SHT31;59989;46.220;19.888;2022-10-15T17:58:10;15.50;66.72
72114;SHT31;59989;46.220;19.888;2022-10-15T18:01:24;15.45;67.03
72114;SHT31;59989;46.220;19.888;2022-10-15T18:04:49;15.43;66.94
72114;SHT31;59989;46.220;19.888;2022-10-15T18:07:51;15.34;67.10
72114;SHT31;59989;46.220;19.888;2022-10-15T18:10:53;15.31;66.90
72114;SHT31;59989;46.220;19.888;2022-10-15T18:13:56;15.25;67.08
72114;SHT31;59989;46.220;19.888;2022-10-15T18:16:58;15.24;66.47
72114;SHT31;59989;46.220;19.888;2022-10-15T18:20:01;15.28;65.60
72114;SHT31;59989;46.220;19.888;2022-10-15T18:23:04;15.34;65.58
72114;SHT31;59989;46.220;19.888;2022-10-15T18:26:11;15.34;65.06
72114;SHT31;59989;46.220;19.888;2022-10-15T18:29:20;15.28;65.46
72114;SHT31;59989;46.220;19.888;2022-10-15T18:32:23;15.29;65.34
72114;SHT31;59989;46.220;19.888;2022-10-15T18:35:26;15.32;64.68
72114;SHT31;59989;46.220;19.888;2022-10-15T18:38:28;15.35;64.54
72114;SHT31;59989;46.220;19.888;2022-10-15T18:41:31;15.31;65.32
72114;SHT31;59989;46.220;19.888;2022-10-15T18:44:35;15.22;65.20
72114;SHT31;59989;46.220;19.888;2022-10-15T18:47:37;15.16;65.37
72114;SHT31;59989;46.220;19.888;2022-10-15T18:50:40;15.12;65.49
72114;SHT31;59989;46.220;19.888;2022-10-15T18:53:44;15.14;65.16
72114;SHT31;59989;46.220;19.888;2022-10-15T18:56:46;15.05;65.56
72114;SHT31;59989;46.220;19.888;2022-10-15T18:59:53;15.04;65.53
72114;SHT31;59989;46.220;19.888;2022-10-15T19:02:56;15.02;65.36
72114;SHT31;59989;46.220;19.888;2022-10-15T19:05:59;15.01;65.68
72114;SHT31;59989;46.220;19.888;2022-10-15T19:09:04;14.94;65.97
72114;SHT31;59989;46.220;19.888;2022-10-15T19:12:07;14.89;65.79
72114;SHT31;59989;46.220;19.888;2022-10-15T19:15:10;14.85;66.05
72114;SHT31;59989;46.220;19.888;2022-10-15T19:18:12;14.84;66.13
72114;SHT31;59989;46.220;19.888;2022-10-15T19:21:17;14.78;66.29
72114;SHT31;59989;46.220;19.888;2022-10-15T19:24:19;14.76;66.56
72114;SHT31;59989;46.220;19.888;2022-10-15T19:27:22;14.68;66.61
72114;SHT31;59989;46.220;19.888;2022-10-15T19:30:25;14.67;66.67
72114;SHT31;59989;46.220;19.888;2022-10-15T19:33:30;14.68;66.86
72114;SHT31;59989;46.220;19.888;2022-10-15T19:36:38;14.66;67.06
72114;SHT31;59989;46.220;19.888;2022-10-15T19:39:41;14.61;66.77
72114;SHT31;59989;46.220;19.888;2022-10-15T19:42:49;14.61;67.17
72114;SHT31;59989;46.220;19.888;2022-10-15T19:45:51;14.59;66.97
72114;SHT31;59989;46.220;19.888;2022-10-15T19:48:55;14.56;66.77
72114;SHT31;59989;46.220;19.888;2022-10-15T19:51:59;14.56;66.62
72114;SHT31;59989;46.220;19.888;2022-10-15T19:55:05;14.55;66.36
72114;SHT31;59989;46.220;19.888;2022-10-15T19:58:08;14.55;66.61
72114;SHT31;59989;46.220;19.888;2022-10-15T20:01:10;14.56;66.02
72114;SHT31;59989;46.220;19.888;2022-10-15T20:04:13;14.50;66.30
72114;SHT31;59989;46.220;19.888;2022-10-15T20:07:15;14.50;66.28
72114;SHT31;59989;46.220;19.888;2022-10-15T20:10:18;14.49;66.13
72114;SHT31;59989;46.220;19.888;2022-10-15T20:13:26;14.44;66.06
72114;SHT31;59989;46.220;19.888;2022-10-15T20:16:29;14.41;66.28
72114;SHT31;59989;46.220;19.888;2022-10-15T20:19:35;14.36;66.42
72114;SHT31;59989;46.220;19.888;2022-10-15T20:22:37;14.33;66.53
72114;SHT31;59989;46.220;19.888;2022-10-15T20:25:41;14.29;66.50
72114;SHT31;59989;46.220;19.888;2022-10-15T20:28:44;14.23;66.55
72114;SHT31;59989;46.220;19.888;2022-10-15T20:31:48;14.22;66.83
72114;SHT31;59989;46.220;19.888;2022-10-15T20:34:52;14.20;66.68
72114;SHT31;59989;46.220;19.888;2022-10-15T20:37:56;14.18;67.05
72114;SHT31;59989;46.220;19.888;2022-10-15T20:40:58;14.13;67.00
72114;SHT31;59989;46.220;19.888;2022-10-15T20:44:01;14.15;67.38
72114;SHT31;59989;46.220;19.888;2022-10-15T20:47:06;14.16;66.80